createdAt,value
2022-10-23T00:01:01.550Z,17.80
2022-10-23T00:03:28.354Z,17.80
2022-10-23T00:05:55.152Z,17.80
2022-10-23T00:08:21.935Z,17.80
2022-10-23T00:10:48.738Z,17.80
2022-10-23T00:13:15.554Z,17.70
2022-10-23T00:15:42.399Z,17.70
2022-10-23T00:18:09.260Z,17.70
2022-10-23T00:20:36.473Z,17.70
2022-10-23T00:23:03.280Z,17.70
2022-10-23T00:25:30.250Z,17.70
2022-10-23T00:27:57.121Z,17.70
2022-10-23T00:30:23.977Z,17.70
2022-10-23T00:32:50.797Z,17.70
2022-10-23T00:35:17.682Z,17.80
2022-10-23T00:37:44.775Z,17.80
2022-10-23T00:40:12.658Z,17.80
2022-10-23T00:42:39.649Z,17.80
2022-10-23T00:45:34.373Z,17.80
2022-10-23T00:48:02.794Z,17.90
2022-10-23T00:50:32.348Z,17.90
2022-10-23T00:53:02.056Z,17.90
2022-10-23T00:55:30.162Z,17.90
2022-10-23T00:57:57.061Z,17.90
2022-10-23T01:00:25.226Z,17.90
2022-10-23T01:02:52.998Z,17.90
2022-10-23T01:05:26.564Z,17.90
2022-10-23T01:08:00.843Z,17.90
2022-10-23T01:10:30.632Z,17.90
2022-10-23T01:13:08.641Z,17.90
2022-10-23T01:15:47.957Z,17.90
2022-10-23T01:18:47.011Z,17.90
2022-10-23T01:21:21.692Z,18.00
2022-10-23T01:24:20.913Z,17.90
2022-10-23T01:26:53.375Z,17.90
2022-10-23T01:29:38.453Z,17.90
2022-10-23T01:32:23.869Z,17.90
2022-10-23T01:35:07.332Z,18.00
2022-10-23T01:37:44.652Z,18.00
2022-10-23T01:40:27.454Z,18.00
2022-10-23T01:42:58.648Z,18.00
2022-10-23T01:45:32.901Z,17.90
2022-10-23T01:48:01.816Z,17.90
2022-10-23T01:50:31.296Z,17.90
2022-10-23T01:52:58.425Z,17.90
2022-10-23T01:55:26.099Z,17.80
2022-10-23T01:57:54.869Z,17.90
2022-10-23T02:00:21.895Z,17.80
2022-10-23T02:02:51.266Z,17.80
2022-10-23T02:05:24.167Z,17.80
2022-10-23T02:07:52.325Z,17.70
2022-10-23T02:10:19.843Z,17.70
2022-10-23T02:13:12.549Z,17.70
2022-10-23T02:15:50.379Z,17.70
2022-10-23T02:19:01.558Z,17.70
2022-10-23T02:21:40.375Z,17.60
2022-10-23T02:24:11.716Z,17.60
2022-10-23T02:26:42.340Z,17.70
2022-10-23T02:29:33.913Z,17.60
2022-10-23T02:32:01.362Z,17.60
2022-10-23T02:34:28.557Z,17.60
2022-10-23T02:36:55.342Z,17.60
2022-10-23T02:39:26.849Z,17.60
2022-10-23T02:42:17.380Z,17.70
2022-10-23T02:44:58.083Z,17.70
2022-10-23T02:47:43.817Z,17.70
2022-10-23T02:50:18.988Z,17.70
2022-10-23T02:53:14.000Z,17.70
2022-10-23T02:56:11.728Z,17.70
2022-10-23T02:58:56.749Z,17.80
2022-10-23T03:01:29.551Z,17.80
2022-10-23T03:04:03.079Z,17.90
2022-10-23T03:06:29.884Z,17.90
2022-10-23T03:09:05.339Z,17.90
2022-10-23T03:11:32.268Z,17.90
2022-10-23T03:13:59.088Z,17.90
2022-10-23T03:16:26.438Z,17.90
2022-10-23T03:18:53.555Z,17.90
2022-10-23T03:21:20.483Z,17.90
2022-10-23T03:23:47.335Z,17.90
2022-10-23T03:26:14.131Z,17.90
2022-10-23T03:28:40.924Z,17.90
2022-10-23T03:31:07.738Z,17.90
2022-10-23T03:33:34.517Z,17.90
2022-10-23T03:36:01.310Z,17.90
2022-10-23T03:38:28.189Z,17.80
2022-10-23T03:40:55.008Z,17.90
2022-10-23T03:43:21.817Z,17.90
2022-10-23T03:45:48.602Z,17.90
2022-10-23T03:48:15.415Z,17.90
2022-10-23T03:50:42.205Z,17.90
2022-10-23T03:53:08.995Z,17.90
2022-10-23T03:55:35.835Z,17.90
2022-10-23T03:58:02.747Z,17.90
2022-10-23T04:00:29.690Z,17.90
2022-10-23T04:02:56.525Z,17.90
2022-10-23T04:05:23.386Z,17.90
2022-10-23T04:07:50.192Z,17.80
2022-10-23T04:10:17.048Z,17.80
2022-10-23T04:12:44.119Z,17.90
2022-10-23T04:15:11.244Z,17.90
2022-10-23T04:17:38.120Z,17.80
2022-10-23T04:20:05.283Z,17.80
2022-10-23T04:22:32.075Z,17.80
2022-10-23T04:24:58.875Z,17.80
2022-10-23T04:27:25.659Z,17.80
2022-10-23T04:29:54.381Z,17.80
2022-10-23T04:32:23.734Z,17.80
2022-10-23T04:34:50.518Z,17.80
2022-10-23T04:37:17.354Z,17.70
2022-10-23T04:39:44.149Z,17.80
2022-10-23T04:42:10.947Z,17.70
2022-10-23T04:44:37.734Z,17.70
2022-10-23T04:47:04.590Z,17.70
2022-10-23T04:49:31.416Z,17.70
2022-10-23T04:51:58.269Z,17.70
2022-10-23T04:54:25.068Z,17.70
2022-10-23T04:56:51.851Z,17.60
2022-10-23T04:59:18.661Z,17.60
2022-10-23T05:01:45.483Z,17.60
2022-10-23T05:04:14.028Z,17.60
2022-10-23T05:06:40.885Z,17.60
2022-10-23T05:09:07.712Z,17.60
2022-10-23T05:11:34.498Z,17.60
2022-10-23T05:14:01.275Z,17.60
2022-10-23T05:16:50.535Z,17.60
2022-10-23T05:19:33.950Z,17.60
2022-10-23T05:22:01.588Z,17.60
2022-10-23T05:24:28.407Z,17.60
2022-10-23T05:26:55.264Z,17.60
2022-10-23T05:29:22.731Z,17.50
2022-10-23T05:31:54.573Z,17.60
2022-10-23T05:34:25.594Z,17.50
2022-10-23T05:36:53.339Z,17.50
2022-10-23T05:39:20.872Z,17.50
2022-10-23T05:41:47.681Z,17.50
2022-10-23T05:44:14.495Z,17.50
2022-10-23T05:46:42.451Z,17.50
2022-10-23T05:49:09.564Z,17.50
2022-10-23T05:51:37.657Z,17.50
2022-10-23T05:54:06.695Z,17.40
2022-10-23T05:56:37.624Z,17.50
2022-10-23T05:59:05.404Z,17.50
2022-10-23T06:01:32.307Z,17.50
2022-10-23T06:04:03.767Z,17.50
2022-10-23T06:06:31.203Z,17.50
2022-10-23T06:08:58.285Z,17.50
2022-10-23T06:11:25.212Z,17.50
2022-10-23T06:13:52.100Z,17.50
2022-10-23T06:16:21.471Z,17.50
2022-10-23T06:18:48.638Z,17.50
2022-10-23T06:21:17.029Z,17.50
2022-10-23T06:23:44.900Z,17.50
2022-10-23T06:26:14.092Z,17.50
2022-10-23T06:28:41.141Z,17.50
2022-10-23T06:31:09.565Z,17.50
2022-10-23T06:33:36.665Z,17.50
2022-10-23T06:36:04.169Z,17.50
2022-10-23T06:38:36.845Z,17.50
2022-10-23T06:41:04.790Z,17.50
2022-10-23T06:43:31.586Z,17.50
2022-10-23T06:46:02.149Z,17.50
2022-10-23T06:48:28.943Z,17.50
2022-10-23T06:50:56.021Z,17.50
2022-10-23T06:53:25.967Z,17.50
2022-10-23T06:55:55.329Z,17.50
2022-10-23T06:58:22.501Z,17.50
2022-10-23T07:00:49.398Z,17.50
2022-10-23T07:03:16.211Z,17.50
2022-10-23T07:05:44.929Z,17.50
2022-10-23T07:08:11.853Z,17.50
2022-10-23T07:10:38.749Z,17.50
2022-10-23T07:13:05.568Z,17.50
2022-10-23T07:15:32.354Z,17.50
2022-10-23T07:17:59.198Z,17.60
2022-10-23T07:20:26.064Z,17.50
2022-10-23T07:22:54.602Z,17.50
2022-10-23T07:25:26.431Z,17.50
2022-10-23T07:27:55.444Z,17.50
2022-10-23T07:30:22.571Z,17.60
2022-10-23T07:32:49.375Z,17.60
2022-10-23T07:35:17.241Z,17.60
2022-10-23T07:37:44.294Z,17.60
2022-10-23T07:40:11.671Z,17.70
2022-10-23T07:42:39.015Z,17.70
2022-10-23T07:45:07.565Z,17.70
2022-10-23T07:47:34.861Z,17.70
2022-10-23T07:50:01.703Z,17.70
2022-10-23T07:52:31.995Z,17.70
2022-10-23T07:55:01.967Z,17.70
2022-10-23T07:57:28.801Z,17.80
2022-10-23T07:59:55.665Z,17.80
2022-10-23T08:02:22.587Z,17.80
2022-10-23T08:04:50.080Z,17.80
2022-10-23T08:07:16.872Z,17.80
2022-10-23T08:09:43.672Z,17.90
2022-10-23T08:12:10.561Z,17.90
2022-10-23T08:14:37.578Z,17.90
2022-10-23T08:17:05.396Z,17.90
2022-10-23T08:19:32.566Z,17.90
2022-10-23T08:21:59.346Z,18.00
2022-10-23T08:24:26.239Z,18.00
2022-10-23T08:26:53.104Z,18.00
2022-10-23T08:29:19.928Z,18.00
2022-10-23T08:31:47.087Z,18.10
2022-10-23T08:34:18.675Z,18.10
2022-10-23T08:36:45.620Z,18.10
2022-10-23T08:39:12.473Z,18.20
2022-10-23T08:41:47.921Z,18.30
2022-10-23T08:44:34.248Z,18.30
2022-10-23T08:47:13.402Z,18.30
2022-10-23T08:49:59.176Z,18.30
2022-10-23T08:52:46.222Z,18.40
2022-10-23T08:55:19.048Z,18.40
2022-10-23T08:58:15.884Z,18.50
2022-10-23T09:00:44.099Z,18.50
2022-10-23T09:03:12.817Z,18.50
2022-10-23T09:06:32.195Z,18.60
2022-10-23T09:09:20.148Z,18.60
2022-10-23T09:11:57.567Z,18.70
2022-10-23T09:14:30.526Z,18.70
2022-10-23T09:17:08.648Z,18.70
2022-10-23T09:19:35.551Z,18.70
2022-10-23T09:22:02.528Z,18.70
2022-10-23T09:24:33.516Z,18.80
2022-10-23T09:27:00.847Z,18.80
2022-10-23T09:29:35.851Z,18.80
2022-10-23T09:32:05.462Z,18.80
2022-10-23T09:34:33.962Z,18.90
2022-10-23T09:37:21.727Z,18.90
2022-10-23T09:39:48.864Z,19.00
2022-10-23T09:42:24.316Z,19.00
2022-10-23T09:44:53.633Z,19.00
2022-10-23T09:47:24.058Z,19.00
2022-10-23T09:49:55.876Z,19.10
2022-10-23T09:52:38.950Z,19.10
2022-10-23T09:55:24.995Z,19.10
2022-10-23T09:57:52.156Z,19.10
2022-10-23T10:00:22.120Z,19.20
2022-10-23T10:03:19.979Z,19.20
2022-10-23T10:05:55.347Z,19.30
2022-10-23T10:08:40.951Z,19.30
2022-10-23T10:11:15.866Z,19.30
2022-10-23T10:14:00.492Z,19.40
2022-10-23T10:16:49.084Z,19.40
2022-10-23T10:19:32.196Z,19.40
2022-10-23T10:22:02.310Z,19.50
2022-10-23T10:24:48.569Z,19.50
2022-10-23T10:27:42.907Z,19.50
2022-10-23T10:30:25.048Z,19.50
2022-10-23T10:33:18.027Z,19.60
2022-10-23T10:36:14.005Z,19.60
2022-10-23T10:38:55.671Z,19.60
2022-10-23T10:41:47.414Z,19.60
2022-10-23T10:44:17.239Z,19.70
2022-10-23T10:46:58.779Z,19.70
2022-10-23T10:50:16.175Z,19.70
2022-10-23T10:53:14.823Z,19.70
2022-10-23T10:55:42.548Z,19.80
2022-10-23T10:58:28.292Z,19.80
2022-10-23T11:01:06.121Z,19.90
2022-10-23T11:03:41.475Z,19.90
2022-10-23T11:06:15.096Z,19.90
2022-10-23T11:08:56.320Z,19.90
2022-10-23T11:11:40.808Z,20.00
2022-10-23T11:14:28.424Z,20.00
2022-10-23T11:17:04.648Z,20.10
2022-10-23T11:20:09.392Z,20.10
2022-10-23T11:23:05.295Z,20.20
2022-10-23T11:25:47.309Z,20.10
2022-10-23T11:28:26.300Z,20.20
2022-10-23T11:31:28.487Z,20.10
2022-10-23T11:34:01.349Z,20.10
2022-10-23T11:36:53.284Z,20.10
2022-10-23T11:39:34.157Z,20.10
2022-10-23T11:42:07.095Z,20.10
2022-10-23T11:44:49.584Z,20.20
2022-10-23T11:47:27.155Z,20.20
2022-10-23T11:50:09.073Z,20.20
2022-10-23T11:52:45.737Z,20.30
2022-10-23T11:55:29.140Z,20.30
2022-10-23T11:58:04.946Z,20.30
2022-10-23T12:00:34.653Z,20.40
2022-10-23T12:03:02.454Z,20.40
2022-10-23T12:05:37.922Z,20.50
2022-10-23T12:08:06.417Z,20.50
2022-10-23T12:10:45.929Z,20.50
2022-10-23T12:13:34.524Z,20.60
2022-10-23T12:16:01.380Z,20.60
2022-10-23T12:18:28.657Z,20.60
2022-10-23T12:21:00.330Z,20.60
2022-10-23T12:23:33.844Z,20.70
2022-10-23T12:26:22.028Z,20.70
2022-10-23T12:29:05.155Z,20.70
2022-10-23T12:31:34.965Z,20.80
2022-10-23T12:34:20.308Z,20.80
2022-10-23T12:37:07.688Z,20.80
2022-10-23T12:39:37.540Z,20.90
2022-10-23T12:42:06.437Z,20.90
2022-10-23T12:44:33.281Z,21.00
2022-10-23T12:47:02.808Z,21.00
2022-10-23T12:49:33.678Z,21.00
2022-10-23T12:52:05.026Z,21.00
2022-10-23T12:54:38.129Z,21.00
2022-10-23T12:57:17.968Z,21.00
2022-10-23T12:59:45.986Z,21.10
2022-10-23T13:02:27.908Z,21.10
2022-10-23T13:04:57.081Z,21.10
2022-10-23T13:07:27.934Z,21.20
2022-10-23T13:09:55.484Z,21.20
2022-10-23T13:12:27.971Z,21.10
2022-10-23T13:15:03.620Z,21.20
2022-10-23T13:17:48.325Z,21.10
2022-10-23T13:20:18.248Z,21.10
2022-10-23T13:22:56.360Z,21.10
2022-10-23T13:25:35.006Z,21.10
2022-10-23T13:28:13.793Z,21.10
2022-10-23T13:30:45.955Z,21.10
2022-10-23T13:33:20.939Z,21.20
2022-10-23T13:36:06.295Z,21.20
2022-10-23T13:38:38.131Z,21.20
2022-10-23T13:41:06.914Z,21.20
2022-10-23T13:43:34.419Z,21.10
2022-10-23T13:46:01.930Z,21.10
2022-10-23T13:48:29.270Z,21.10
2022-10-23T13:51:12.279Z,21.10
2022-10-23T13:53:39.140Z,21.10
2022-10-23T13:56:06.267Z,21.10
2022-10-23T13:58:33.109Z,21.20
2022-10-23T14:01:00.130Z,21.20
2022-10-23T14:03:27.066Z,21.20
2022-10-23T14:05:54.092Z,21.10
2022-10-23T14:08:21.955Z,21.20
2022-10-23T14:10:48.843Z,21.20
2022-10-23T14:13:16.390Z,21.20
2022-10-23T14:15:43.175Z,21.20
2022-10-23T14:18:09.971Z,21.20
2022-10-23T14:20:39.011Z,21.20
2022-10-23T14:23:05.793Z,21.20
2022-10-23T14:25:32.638Z,21.20
2022-10-23T14:27:59.428Z,21.20
2022-10-23T14:30:26.240Z,21.20
2022-10-23T14:32:53.068Z,21.20
2022-10-23T14:35:19.953Z,21.20
2022-10-23T14:37:47.043Z,21.20
2022-10-23T14:40:14.096Z,21.20
2022-10-23T14:42:40.956Z,21.20
2022-10-23T14:45:08.458Z,21.20
2022-10-23T14:47:35.411Z,21.20
2022-10-23T14:50:02.253Z,21.20
2022-10-23T14:52:29.081Z,21.20
2022-10-23T14:54:55.874Z,21.10
2022-10-23T14:57:22.791Z,21.10
2022-10-23T14:59:49.935Z,21.10
2022-10-23T15:02:17.748Z,21.10
2022-10-23T15:04:44.735Z,21.10
2022-10-23T15:07:11.568Z,21.20
2022-10-23T15:09:39.712Z,21.10
2022-10-23T15:12:07.697Z,21.10
2022-10-23T15:14:34.876Z,21.10
2022-10-23T15:17:01.765Z,21.10
2022-10-23T15:19:28.708Z,21.00
2022-10-23T15:21:55.548Z,21.00
2022-10-23T15:24:22.431Z,21.00
2022-10-23T15:26:50.246Z,21.10
2022-10-23T15:29:17.619Z,21.10
2022-10-23T15:31:51.943Z,21.10
2022-10-23T15:34:21.091Z,21.10
2022-10-23T15:36:48.923Z,21.10
2022-10-23T15:39:21.480Z,21.10
2022-10-23T15:41:54.670Z,21.10
2022-10-23T15:44:23.946Z,21.10
2022-10-23T15:46:51.696Z,21.10
2022-10-23T15:49:19.049Z,21.10
2022-10-23T15:51:46.265Z,21.10
2022-10-23T15:54:17.142Z,21.10
2022-10-23T15:56:45.448Z,21.10
2022-10-23T15:59:12.703Z,21.10
2022-10-23T16:01:39.660Z,21.10
2022-10-23T16:04:06.626Z,21.10
2022-10-23T16:06:33.581Z,21.10
2022-10-23T16:09:00.699Z,21.10
2022-10-23T16:11:34.324Z,21.10
2022-10-23T16:14:03.190Z,21.10
2022-10-23T16:16:32.377Z,21.10
2022-10-23T16:19:00.645Z,21.10
2022-10-23T16:21:30.627Z,21.00
2022-10-23T16:23:59.471Z,21.00
2022-10-23T16:26:27.711Z,21.00
2022-10-23T16:29:00.553Z,20.90
2022-10-23T16:31:28.246Z,21.00
2022-10-23T16:36:45.360Z,20.90
2022-10-23T16:39:13.651Z,20.90
2022-10-23T16:41:40.527Z,20.90
2022-10-23T16:44:07.344Z,20.80
2022-10-23T16:46:35.605Z,20.80
2022-10-23T16:49:06.288Z,20.80
2022-10-23T16:51:33.454Z,20.80
2022-10-23T16:54:00.450Z,20.70
2022-10-23T16:56:30.724Z,20.70
2022-10-23T17:01:45.860Z,20.70
2022-10-23T17:04:12.705Z,20.70
2022-10-23T17:06:39.557Z,20.60
2022-10-23T17:09:06.701Z,20.60
2022-10-23T17:11:40.823Z,20.60
2022-10-23T17:14:13.524Z,20.60
2022-10-23T17:16:45.051Z,20.60
2022-10-23T17:19:20.829Z,20.50
2022-10-23T17:21:55.250Z,20.50
2022-10-23T17:24:23.158Z,20.50
2022-10-23T17:26:49.959Z,20.50
2022-10-23T17:29:18.406Z,20.40
2022-10-23T17:31:48.229Z,20.50
2022-10-23T17:34:21.766Z,20.40
2022-10-23T17:36:51.742Z,20.40
2022-10-23T17:39:22.191Z,20.40
2022-10-23T17:41:49.626Z,20.30
2022-10-23T17:44:16.550Z,20.30
2022-10-23T17:46:43.520Z,20.30
2022-10-23T17:49:11.253Z,20.20
2022-10-23T17:51:38.650Z,20.20
2022-10-23T17:54:11.893Z,20.20
2022-10-23T17:56:40.760Z,20.20
2022-10-23T17:59:12.344Z,20.10
2022-10-23T18:01:40.218Z,20.10
2022-10-23T18:04:08.082Z,20.10
2022-10-23T18:06:46.453Z,20.00
2022-10-23T18:09:13.316Z,20.00
2022-10-23T18:11:45.390Z,20.00
2022-10-23T18:14:15.069Z,19.90
2022-10-23T18:16:42.067Z,19.90
2022-10-23T18:19:10.237Z,19.90
2022-10-23T18:21:38.100Z,19.90
2022-10-23T18:24:05.240Z,19.90
2022-10-23T18:26:35.217Z,19.90
2022-10-23T18:29:04.978Z,19.80
2022-10-23T18:31:31.894Z,19.80
2022-10-23T18:34:13.614Z,19.80
2022-10-23T18:36:41.068Z,19.80
2022-10-23T18:39:11.041Z,19.80
2022-10-23T18:41:40.349Z,19.70
2022-10-23T18:44:08.103Z,19.70
2022-10-23T18:46:35.403Z,19.70
2022-10-23T18:49:02.468Z,19.60
2022-10-23T18:51:32.307Z,19.60
2022-10-23T18:54:02.209Z,19.60
2022-10-23T18:56:29.008Z,19.60
2022-10-23T18:59:01.808Z,19.60
2022-10-23T19:01:29.909Z,19.60
2022-10-23T19:03:58.330Z,19.60
2022-10-23T19:06:25.604Z,19.60
2022-10-23T19:08:52.692Z,19.60
2022-10-23T19:11:21.487Z,19.50
2022-10-23T19:13:48.501Z,19.50
2022-10-23T19:16:24.348Z,19.50
2022-10-23T19:18:55.976Z,19.50
2022-10-23T19:21:25.342Z,19.50
2022-10-23T19:23:52.527Z,19.50
2022-10-23T19:26:19.432Z,19.50
2022-10-23T19:28:49.062Z,19.40
2022-10-23T19:31:16.053Z,19.40
2022-10-23T19:33:42.985Z,19.40
2022-10-23T19:36:13.912Z,19.40
2022-10-23T19:38:41.950Z,19.40
2022-10-23T19:41:08.885Z,19.40
2022-10-23T19:43:37.766Z,19.40
2022-10-23T19:46:09.327Z,19.40
2022-10-23T19:48:42.455Z,19.40
2022-10-23T19:51:09.698Z,19.40
2022-10-23T19:53:36.748Z,19.40
2022-10-23T19:56:05.335Z,19.40
2022-10-23T19:58:32.207Z,19.30
2022-10-23T20:00:59.400Z,19.30
2022-10-23T20:03:26.390Z,19.30
2022-10-23T20:05:53.238Z,19.30
2022-10-23T20:08:20.119Z,19.30
2022-10-23T20:10:48.051Z,19.30
2022-10-23T20:13:19.846Z,19.30
2022-10-23T20:15:47.353Z,19.30
2022-10-23T20:18:14.143Z,19.30
2022-10-23T20:20:43.739Z,19.30
2022-10-23T20:23:10.614Z,19.20
2022-10-23T20:25:37.826Z,19.20
2022-10-23T20:28:04.920Z,19.20
2022-10-23T20:30:31.998Z,19.20
2022-10-23T20:32:58.829Z,19.20
2022-10-23T20:35:25.741Z,19.20
2022-10-23T20:37:52.629Z,19.10
2022-10-23T20:40:19.598Z,19.10
2022-10-23T20:42:46.423Z,19.10
2022-10-23T20:45:13.252Z,19.10
2022-10-23T20:47:40.040Z,19.10
2022-10-23T20:50:08.587Z,19.10
2022-10-23T20:52:35.487Z,19.00
2022-10-23T20:55:02.312Z,19.00
2022-10-23T20:57:29.165Z,19.00
2022-10-23T20:59:56.031Z,19.00
2022-10-23T21:02:22.953Z,19.00
2022-10-23T21:04:50.580Z,19.00
2022-10-23T21:07:18.256Z,19.00
2022-10-23T21:09:45.155Z,18.90
2022-10-23T21:12:12.049Z,19.00
2022-10-23T21:14:38.843Z,19.00
2022-10-23T21:17:05.831Z,19.00
2022-10-23T21:19:32.638Z,19.00
2022-10-23T21:22:00.277Z,19.00
2022-10-23T21:24:27.126Z,19.00
2022-10-23T21:26:53.953Z,19.00
2022-10-23T21:29:21.033Z,19.00
2022-10-23T21:31:59.877Z,19.10
2022-10-23T21:34:27.478Z,19.10
2022-10-23T21:37:11.928Z,19.10
2022-10-23T21:39:40.121Z,19.10
2022-10-23T21:42:06.920Z,19.10
2022-10-23T21:44:33.959Z,19.20
2022-10-23T21:47:00.774Z,19.10
2022-10-23T21:49:27.600Z,19.10
2022-10-23T21:51:55.240Z,19.10
2022-10-23T21:54:22.263Z,19.10
2022-10-23T21:56:51.566Z,19.10
2022-10-23T21:59:21.209Z,19.10
2022-10-23T22:01:49.169Z,19.10
2022-10-23T22:04:18.500Z,19.10
2022-10-23T22:06:47.528Z,19.20
2022-10-23T22:09:18.966Z,19.10
2022-10-23T22:11:46.019Z,19.10
2022-10-23T22:14:12.813Z,19.20
2022-10-23T22:16:39.652Z,19.20
2022-10-23T22:19:06.445Z,19.10
2022-10-23T22:21:33.273Z,19.20
2022-10-23T22:24:01.184Z,19.10
2022-10-23T22:26:37.019Z,19.10
2022-10-23T22:29:10.038Z,19.10
2022-10-23T22:31:37.907Z,19.10
2022-10-23T22:34:18.668Z,19.10
2022-10-23T22:36:54.781Z,19.10
2022-10-23T22:39:22.652Z,19.10
2022-10-23T22:41:54.609Z,19.10
2022-10-23T22:44:21.522Z,19.10
2022-10-23T22:46:48.396Z,19.10
2022-10-23T22:49:15.239Z,19.10
2022-10-23T22:51:42.119Z,19.10
2022-10-23T22:54:10.167Z,19.10
2022-10-23T22:56:37.247Z,19.00
2022-10-23T22:59:04.757Z,19.10
2022-10-23T23:01:38.301Z,19.10
2022-10-23T23:04:14.017Z,19.10
2022-10-23T23:06:52.157Z,19.00
2022-10-23T23:09:20.238Z,19.00
2022-10-23T23:11:54.396Z,19.10
2022-10-23T23:14:23.770Z,19.00
2022-10-23T23:16:52.466Z,19.00
2022-10-23T23:19:19.445Z,19.00
2022-10-23T23:21:46.272Z,19.00
2022-10-23T23:24:13.298Z,19.00
2022-10-23T23:26:40.375Z,19.00
2022-10-23T23:29:07.252Z,19.00
2022-10-23T23:31:34.080Z,19.00
2022-10-23T23:34:01.075Z,19.00
2022-10-23T23:36:28.524Z,19.00
2022-10-23T23:38:57.634Z,19.00
2022-10-23T23:41:25.572Z,18.90
2022-10-23T23:43:55.149Z,18.90
2022-10-23T23:46:22.127Z,18.90
2022-10-23T23:48:49.901Z,18.90
2022-10-23T23:51:18.849Z,18.90
2022-10-23T23:53:46.135Z,18.90
2022-10-23T23:56:13.311Z,18.90
2022-10-23T23:58:40.585Z,18.90
